sensor_id;sensor_type;location;lat;lon;timestamp;temperature;humidity
21627;DHT22;10975;47.872;12.972;2023-11-19T00:00:07;5.40;99.90
21627;DHT22;10975;47.872;12.972;2023-11-19T00:02:38;5.40;99.90
21627;DHT22;10975;47.872;12.972;2023-11-19T00:05:06;5.30;99.90
21627;DHT22;10975;47.872;12.972;2023-11-19T00:07:35;5.40;99.90
21627;DHT22;10975;47.872;12.972;2023-11-19T00:10:03;5.40;99.90
21627;DHT22;10975;47.872;12.972;2023-11-19T00:12:33;5.40;99.90
21627;DHT22;10975;47.872;12.972;2023-11-19T00:15:00;5.40;99.90
21627;DHT22;10975;47.872;12.972;2023-11-19T00:17:27;5.40;99.90
21627;DHT22;10975;47.872;12.972;2023-11-19T00:19:54;5.40;99.90
21627;DHT22;10975;47.872;12.972;2023-11-19T00:22:21;5.40;99.90
21627;DHT22;10975;47.872;12.972;2023-11-19T00:24:48;5.40;99.90
21627;DHT22;10975;47.872;12.972;2023-11-19T00:27:15;5.40;99.90
21627;DHT22;10975;47.872;12.972;2023-11-19T00:29:42;5.40;99.90
21627;DHT22;10975;47.872;12.972;2023-11-19T00:32:09;5.50;99.90
21627;DHT22;10975;47.872;12.972;2023-11-19T00:34:35;5.50;99.90
21627;DHT22;10975;47.872;12.972;2023-11-19T00:37:02;5.40;99.90
21627;DHT22;10975;47.872;12.972;2023-11-19T00:39:30;5.40;99.90
21627;DHT22;10975;47.872;12.972;2023-11-19T00:41:57;5.50;99.90
21627;DHT22;10975;47.872;12.972;2023-11-19T00:44:23;5.50;99.90
21627;DHT22;10975;47.872;12.972;2023-11-19T00:46:50;5.50;99.90
21627;DHT22;10975;47.872;12.972;2023-11-19T00:49:17;5.40;99.90
21627;DHT22;10975;47.872;12.972;2023-11-19T00:51:44;5.50;99.90
21627;DHT22;10975;47.872;12.972;2023-11-19T00:54:12;5.50;99.90
21627;DHT22;10975;47.872;12.972;2023-11-19T00:56:39;5.50;99.90
21627;DHT22;10975;47.872;12.972;2023-11-19T00:59:06;5.50;99.90
21627;DHT22;10975;47.872;12.972;2023-11-19T01:01:34;5.50;99.90
21627;DHT22;10975;47.872;12.972;2023-11-19T01:04:01;5.50;99.90
21627;DHT22;10975;47.872;12.972;2023-11-19T01:06:30;5.60;99.90
21627;DHT22;10975;47.872;12.972;2023-11-19T01:08:57;5.60;99.90
21627;DHT22;10975;47.872;12.972;2023-11-19T01:11:25;5.50;99.90
21627;DHT22;10975;47.872;12.972;2023-11-19T01:13:52;5.50;99.90
21627;DHT22;10975;47.872;12.972;2023-11-19T01:16:18;5.60;99.90
21627;DHT22;10975;47.872;12.972;2023-11-19T01:18:48;5.60;99.90
21627;DHT22;10975;47.872;12.972;2023-11-19T01:21:15;5.60;99.90
21627;DHT22;10975;47.872;12.972;2023-11-19T01:23:42;5.60;99.90
21627;DHT22;10975;47.872;12.972;2023-11-19T01:26:12;5.60;99.90
21627;DHT22;10975;47.872;12.972;2023-11-19T01:28:39;5.60;99.90
21627;DHT22;10975;47.872;12.972;2023-11-19T01:31:17;5.60;99.90
21627;DHT22;10975;47.872;12.972;2023-11-19T01:33:44;5.60;99.90
21627;DHT22;10975;47.872;12.972;2023-11-19T01:36:14;5.60;99.90
21627;DHT22;10975;47.872;12.972;2023-11-19T01:38:41;5.60;99.90
21627;DHT22;10975;47.872;12.972;2023-11-19T01:41:07;5.60;99.90
21627;DHT22;10975;47.872;12.972;2023-11-19T01:43:36;5.60;99.90
21627;DHT22;10975;47.872;12.972;2023-11-19T01:46:04;5.70;99.90
21627;DHT22;10975;47.872;12.972;2023-11-19T01:48:32;5.70;99.90
21627;DHT22;10975;47.872;12.972;2023-11-19T01:50:59;5.70;99.90
21627;DHT22;10975;47.872;12.972;2023-11-19T01:53:28;5.70;99.90
21627;DHT22;10975;47.872;12.972;2023-11-19T01:55:55;5.70;99.90
21627;DHT22;10975;47.872;12.972;2023-11-19T01:58:23;5.80;99.90
21627;DHT22;10975;47.872;12.972;2023-11-19T02:00:50;5.80;99.90
21627;DHT22;10975;47.872;12.972;2023-11-19T02:03:18;5.80;99.90
21627;DHT22;10975;47.872;12.972;2023-11-19T02:05:46;5.80;99.90
21627;DHT22;10975;47.872;12.972;2023-11-19T02:08:15;5.80;99.90
21627;DHT22;10975;47.872;12.972;2023-11-19T02:10:42;5.80;99.90
21627;DHT22;10975;47.872;12.972;2023-11-19T02:13:09;5.70;99.90
21627;DHT22;10975;47.872;12.972;2023-11-19T02:15:36;5.70;99.90
21627;DHT22;10975;47.872;12.972;2023-11-19T02:18:22;5.80;99.90
21627;DHT22;10975;47.872;12.972;2023-11-19T02:20:50;5.80;99.90
21627;DHT22;10975;47.872;12.972;2023-11-19T02:23:17;5.80;99.90
21627;DHT22;10975;47.872;12.972;2023-11-19T02:25:47;5.80;99.90
21627;DHT22;10975;47.872;12.972;2023-11-19T02:28:16;5.80;99.90
21627;DHT22;10975;47.872;12.972;2023-11-19T02:30:43;5.80;99.90
21627;DHT22;10975;47.872;12.972;2023-11-19T02:33:10;5.80;99.90
21627;DHT22;10975;47.872;12.972;2023-11-19T02:35:36;5.80;99.90
21627;DHT22;10975;47.872;12.972;2023-11-19T02:38:03;5.80;99.90
21627;DHT22;10975;47.872;12.972;2023-11-19T02:40:33;5.80;99.90
21627;DHT22;10975;47.872;12.972;2023-11-19T02:43:00;5.80;99.90
21627;DHT22;10975;47.872;12.972;2023-11-19T02:45:27;5.90;99.90
21627;DHT22;10975;47.872;12.972;2023-11-19T02:47:54;5.90;99.90
21627;DHT22;10975;47.872;12.972;2023-11-19T02:50:24;5.90;99.90
21627;DHT22;10975;47.872;12.972;2023-11-19T02:52:53;5.90;99.90
21627;DHT22;10975;47.872;12.972;2023-11-19T02:55:20;5.90;99.90
21627;DHT22;10975;47.872;12.972;2023-11-19T02:57:47;5.80;99.90
21627;DHT22;10975;47.872;12.972;2023-11-19T03:00:17;5.90;99.90
21627;DHT22;10975;47.872;12.972;2023-11-19T03:02:44;5.80;99.90
21627;DHT22;10975;47.872;12.972;2023-11-19T03:05:20;5.80;99.90
21627;DHT22;10975;47.872;12.972;2023-11-19T03:07:47;5.90;99.90
21627;DHT22;10975;47.872;12.972;2023-11-19T03:10:14;5.80;99.90
21627;DHT22;10975;47.872;12.972;2023-11-19T03:12:41;5.90;99.90
21627;DHT22;10975;47.872;12.972;2023-11-19T03:15:08;5.90;99.90
21627;DHT22;10975;47.872;12.972;2023-11-19T03:17:38;5.90;99.90
21627;DHT22;10975;47.872;12.972;2023-11-19T03:20:06;5.90;99.90
21627;DHT22;10975;47.872;12.972;2023-11-19T03:22:33;5.90;99.90
21627;DHT22;10975;47.872;12.972;2023-11-19T03:25:03;5.90;99.90
21627;DHT22;10975;47.872;12.972;2023-11-19T03:27:30;5.90;99.90
21627;DHT22;10975;47.872;12.972;2023-11-19T03:29:57;5.90;99.90
21627;DHT22;10975;47.872;12.972;2023-11-19T03:32:23;5.90;99.90
21627;DHT22;10975;47.872;12.972;2023-11-19T03:34:50;6.00;99.90
21627;DHT22;10975;47.872;12.972;2023-11-19T03:37:17;5.90;99.90
21627;DHT22;10975;47.872;12.972;2023-11-19T03:39:44;5.90;99.90
21627;DHT22;10975;47.872;12.972;2023-11-19T03:42:10;5.90;99.90
21627;DHT22;10975;47.872;12.972;2023-11-19T03:44:39;6.00;99.90
21627;DHT22;10975;47.872;12.972;2023-11-19T03:47:06;6.00;99.90
21627;DHT22;10975;47.872;12.972;2023-11-19T03:49:33;6.00;99.90
21627;DHT22;10975;47.872;12.972;2023-11-19T03:51:59;6.00;99.90
21627;DHT22;10975;47.872;12.972;2023-11-19T03:54:26;6.00;99.90
21627;DHT22;10975;47.872;12.972;2023-11-19T03:56:54;6.00;99.90
21627;DHT22;10975;47.872;12.972;2023-11-19T03:59:21;6.00;99.90
21627;DHT22;10975;47.872;12.972;2023-11-19T04:01:47;6.00;99.90
21627;DHT22;10975;47.872;12.972;2023-11-19T04:04:14;6.00;99.90
21627;DHT22;10975;47.872;12.972;2023-11-19T04:06:41;6.00;99.90
21627;DHT22;10975;47.872;12.972;2023-11-19T04:09:08;6.10;99.90
21627;DHT22;10975;47.872;12.972;2023-11-19T04:11:35;6.00;99.90
21627;DHT22;10975;47.872;12.972;2023-11-19T04:14:02;6.00;99.90
21627;DHT22;10975;47.872;12.972;2023-11-19T04:16:29;6.10;99.90
21627;DHT22;10975;47.872;12.972;2023-11-19T04:18:56;6.00;99.90
21627;DHT22;10975;47.872;12.972;2023-11-19T04:21:22;6.10;99.90
21627;DHT22;10975;47.872;12.972;2023-11-19T04:23:49;6.10;99.90
21627;DHT22;10975;47.872;12.972;2023-11-19T04:26:16;6.10;99.90
21627;DHT22;10975;47.872;12.972;2023-11-19T04:28:43;6.20;99.90
21627;DHT22;10975;47.872;12.972;2023-11-19T04:31:09;6.20;99.90
21627;DHT22;10975;47.872;12.972;2023-11-19T04:33:36;6.10;99.90
21627;DHT22;10975;47.872;12.972;2023-11-19T04:36:03;6.20;99.90
21627;DHT22;10975;47.872;12.972;2023-11-19T04:38:30;6.20;99.90
21627;DHT22;10975;47.872;12.972;2023-11-19T04:40:57;6.20;99.90
21627;DHT22;10975;47.872;12.972;2023-11-19T04:43:24;6.20;99.90
21627;DHT22;10975;47.872;12.972;2023-11-19T04:45:51;6.20;99.90
21627;DHT22;10975;47.872;12.972;2023-11-19T04:48:17;6.20;99.90
21627;DHT22;10975;47.872;12.972;2023-11-19T04:50:44;6.20;99.90
21627;DHT22;10975;47.872;12.972;2023-11-19T04:53:11;6.20;99.90
21627;DHT22;10975;47.872;12.972;2023-11-19T04:55:38;6.30;99.90
21627;DHT22;10975;47.872;12.972;2023-11-19T04:58:04;6.30;99.90
21627;DHT22;10975;47.872;12.972;2023-11-19T05:00:32;6.30;99.90
21627;DHT22;10975;47.872;12.972;2023-11-19T05:02:58;6.20;99.90
21627;DHT22;10975;47.872;12.972;2023-11-19T05:05:26;6.30;99.90
21627;DHT22;10975;47.872;12.972;2023-11-19T05:07:53;6.30;99.90
21627;DHT22;10975;47.872;12.972;2023-11-19T05:10:21;6.30;99.90
21627;DHT22;10975;47.872;12.972;2023-11-19T05:12:48;6.30;99.90
21627;DHT22;10975;47.872;12.972;2023-11-19T05:15:14;6.30;99.90
21627;DHT22;10975;47.872;12.972;2023-11-19T05:17:41;6.30;99.90
21627;DHT22;10975;47.872;12.972;2023-11-19T05:20:08;6.30;99.90
21627;DHT22;10975;47.872;12.972;2023-11-19T05:22:41;6.30;99.90
21627;DHT22;10975;47.872;12.972;2023-11-19T05:25:08;6.30;99.90
21627;DHT22;10975;47.872;12.972;2023-11-19T05:27:38;6.30;99.90
21627;DHT22;10975;47.872;12.972;2023-11-19T05:30:05;6.30;99.90
21627;DHT22;10975;47.872;12.972;2023-11-19T05:32:33;6.30;99.90
21627;DHT22;10975;47.872;12.972;2023-11-19T05:35:00;6.40;99.90
21627;DHT22;10975;47.872;12.972;2023-11-19T05:37:27;6.40;99.90
21627;DHT22;10975;47.872;12.972;2023-11-19T05:39:54;6.40;99.90
21627;DHT22;10975;47.872;12.972;2023-11-19T05:42:21;6.40;99.90
21627;DHT22;10975;47.872;12.972;2023-11-19T05:44:47;6.40;99.90
21627;DHT22;10975;47.872;12.972;2023-11-19T05:47:14;6.40;99.90
21627;DHT22;10975;47.872;12.972;2023-11-19T05:49:41;6.40;99.90
21627;DHT22;10975;47.872;12.972;2023-11-19T05:52:08;6.40;99.90
21627;DHT22;10975;47.872;12.972;2023-11-19T05:54:36;6.50;99.90
21627;DHT22;10975;47.872;12.972;2023-11-19T05:57:04;6.50;99.90
21627;DHT22;10975;47.872;12.972;2023-11-19T05:59:31;6.50;99.90
21627;DHT22;10975;47.872;12.972;2023-11-19T06:01:59;6.50;99.90
21627;DHT22;10975;47.872;12.972;2023-11-19T06:04:26;6.50;99.90
21627;DHT22;10975;47.872;12.972;2023-11-19T06:06:53;6.50;99.90
21627;DHT22;10975;47.872;12.972;2023-11-19T06:09:21;6.50;99.90
21627;DHT22;10975;47.872;12.972;2023-11-19T06:11:50;6.50;99.90
21627;DHT22;10975;47.872;12.972;2023-11-19T06:14:18;6.50;99.90
21627;DHT22;10975;47.872;12.972;2023-11-19T06:16:44;6.50;99.90
21627;DHT22;10975;47.872;12.972;2023-11-19T06:19:11;6.50;99.90
21627;DHT22;10975;47.872;12.972;2023-11-19T06:21:38;6.50;99.90
21627;DHT22;10975;47.872;12.972;2023-11-19T06:24:05;6.50;99.90
21627;DHT22;10975;47.872;12.972;2023-11-19T06:26:32;6.60;99.90
21627;DHT22;10975;47.872;12.972;2023-11-19T06:28:58;6.60;99.90
21627;DHT22;10975;47.872;12.972;2023-11-19T06:31:25;6.60;99.90
21627;DHT22;10975;47.872;12.972;2023-11-19T06:33:52;6.60;99.90
21627;DHT22;10975;47.872;12.972;2023-11-19T06:36:19;6.60;99.90
21627;DHT22;10975;47.872;12.972;2023-11-19T06:38:45;6.60;99.90
21627;DHT22;10975;47.872;12.972;2023-11-19T06:41:12;6.60;99.90
21627;DHT22;10975;47.872;12.972;2023-11-19T06:43:39;6.60;99.90
21627;DHT22;10975;47.872;12.972;2023-11-19T06:46:14;6.70;99.90
21627;DHT22;10975;47.872;12.972;2023-11-19T06:48:41;6.70;99.90
21627;DHT22;10975;47.872;12.972;2023-11-19T06:51:10;6.70;99.90
21627;DHT22;10975;47.872;12.972;2023-11-19T06:53:37;6.60;99.90
21627;DHT22;10975;47.872;12.972;2023-11-19T06:56:16;6.60;99.90
21627;DHT22;10975;47.872;12.972;2023-11-19T06:58:43;6.60;99.90
21627;DHT22;10975;47.872;12.972;2023-11-19T07:01:10;6.60;99.90
21627;DHT22;10975;47.872;12.972;2023-11-19T07:03:37;6.60;99.90
21627;DHT22;10975;47.872;12.972;2023-11-19T07:06:04;6.70;99.90
21627;DHT22;10975;47.872;12.972;2023-11-19T07:08:32;6.70;99.90
21627;DHT22;10975;47.872;12.972;2023-11-19T07:10:59;6.80;99.90
21627;DHT22;10975;47.872;12.972;2023-11-19T07:13:25;6.80;99.90
21627;DHT22;10975;47.872;12.972;2023-11-19T07:15:55;6.80;99.90
21627;DHT22;10975;47.872;12.972;2023-11-19T07:18:22;6.90;99.90
21627;DHT22;10975;47.872;12.972;2023-11-19T07:20:49;6.90;99.90
21627;DHT22;10975;47.872;12.972;2023-11-19T07:23:16;6.90;99.90
21627;DHT22;10975;47.872;12.972;2023-11-19T07:25:43;6.90;99.90
21627;DHT22;10975;47.872;12.972;2023-11-19T07:28:13;6.90;99.90
21627;DHT22;10975;47.872;12.972;2023-11-19T07:30:40;6.90;99.90
21627;DHT22;10975;47.872;12.972;2023-11-19T07:33:08;6.90;99.90
21627;DHT22;10975;47.872;12.972;2023-11-19T07:35:35;6.90;99.90
21627;DHT22;10975;47.872;12.972;2023-11-19T07:38:01;6.90;99.90
21627;DHT22;10975;47.872;12.972;2023-11-19T07:40:28;7.00;99.90
21627;DHT22;10975;47.872;12.972;2023-11-19T07:42:55;7.00;99.90
21627;DHT22;10975;47.872;12.972;2023-11-19T07:45:22;7.00;99.90
21627;DHT22;10975;47.872;12.972;2023-11-19T07:47:49;7.10;99.90
21627;DHT22;10975;47.872;12.972;2023-11-19T07:50:17;7.10;99.90
21627;DHT22;10975;47.872;12.972;2023-11-19T07:52:46;7.10;99.90
21627;DHT22;10975;47.872;12.972;2023-11-19T07:55:13;7.10;99.90
21627;DHT22;10975;47.872;12.972;2023-11-19T07:57:40;7.10;99.90
21627;DHT22;10975;47.872;12.972;2023-11-19T08:00:07;7.10;99.90
21627;DHT22;10975;47.872;12.972;2023-11-19T08:02:39;7.20;99.90
21627;DHT22;10975;47.872;12.972;2023-11-19T08:05:06;7.20;99.90
21627;DHT22;10975;47.872;12.972;2023-11-19T08:07:33;7.30;99.90
21627;DHT22;10975;47.872;12.972;2023-11-19T08:09:59;7.30;99.90
21627;DHT22;10975;47.872;12.972;2023-11-19T08:12:26;7.40;99.90
21627;DHT22;10975;47.872;12.972;2023-11-19T08:14:53;7.40;99.90
21627;DHT22;10975;47.872;12.972;2023-11-19T08:17:20;7.40;99.90
21627;DHT22;10975;47.872;12.972;2023-11-19T08:19:46;7.30;99.90
21627;DHT22;10975;47.872;12.972;2023-11-19T08:22:13;7.30;99.90
21627;DHT22;10975;47.872;12.972;2023-11-19T08:24:40;7.30;99.90
21627;DHT22;10975;47.872;12.972;2023-11-19T08:27:06;7.40;99.90
21627;DHT22;10975;47.872;12.972;2023-11-19T08:29:33;7.50;99.90
21627;DHT22;10975;47.872;12.972;2023-11-19T08:32:01;7.50;99.90
21627;DHT22;10975;47.872;12.972;2023-11-19T08:34:29;7.50;99.90
21627;DHT22;10975;47.872;12.972;2023-11-19T08:36:56;7.50;99.90
21627;DHT22;10975;47.872;12.972;2023-11-19T08:39:22;7.60;99.90
21627;DHT22;10975;47.872;12.972;2023-11-19T08:41:49;7.60;99.90
21627;DHT22;10975;47.872;12.972;2023-11-19T08:44:17;7.60;99.90
21627;DHT22;10975;47.872;12.972;2023-11-19T08:46:49;7.60;99.90
21627;DHT22;10975;47.872;12.972;2023-11-19T08:49:15;7.60;99.90
21627;DHT22;10975;47.872;12.972;2023-11-19T08:51:42;7.60;99.90
21627;DHT22;10975;47.872;12.972;2023-11-19T08:54:09;7.60;99.90
21627;DHT22;10975;47.872;12.972;2023-11-19T08:56:36;7.60;99.90
21627;DHT22;10975;47.872;12.972;2023-11-19T08:59:03;7.60;99.90
21627;DHT22;10975;47.872;12.972;2023-11-19T09:01:30;7.70;99.90
21627;DHT22;10975;47.872;12.972;2023-11-19T09:03:57;7.80;99.90
21627;DHT22;10975;47.872;12.972;2023-11-19T09:06:24;7.80;99.90
21627;DHT22;10975;47.872;12.972;2023-11-19T09:08:51;7.90;99.90
21627;DHT22;10975;47.872;12.972;2023-11-19T09:11:18;7.90;99.90
21627;DHT22;10975;47.872;12.972;2023-11-19T09:13:45;7.90;99.90
21627;DHT22;10975;47.872;12.972;2023-11-19T09:16:12;7.90;99.90
21627;DHT22;10975;47.872;12.972;2023-11-19T09:18:39;7.90;99.90
21627;DHT22;10975;47.872;12.972;2023-11-19T09:21:05;7.90;99.90
21627;DHT22;10975;47.872;12.972;2023-11-19T09:23:32;8.00;99.90
21627;DHT22;10975;47.872;12.972;2023-11-19T09:26:05;8.00;99.90
21627;DHT22;10975;47.872;12.972;2023-11-19T09:28:32;8.10;99.90
21627;DHT22;10975;47.872;12.972;2023-11-19T09:30:59;8.10;99.90
21627;DHT22;10975;47.872;12.972;2023-11-19T09:33:26;8.10;99.90
21627;DHT22;10975;47.872;12.972;2023-11-19T09:35:53;8.30;99.90
21627;DHT22;10975;47.872;12.972;2023-11-19T09:38:19;8.50;99.90
21627;DHT22;10975;47.872;12.972;2023-11-19T09:40:46;8.60;99.90
21627;DHT22;10975;47.872;12.972;2023-11-19T09:43:15;8.70;99.90
21627;DHT22;10975;47.872;12.972;2023-11-19T09:45:48;8.70;99.90
21627;DHT22;10975;47.872;12.972;2023-11-19T09:48:17;8.70;99.90
21627;DHT22;10975;47.872;12.972;2023-11-19T09:50:48;8.70;99.90
21627;DHT22;10975;47.872;12.972;2023-11-19T09:53:15;8.80;99.90
21627;DHT22;10975;47.872;12.972;2023-11-19T09:55:46;8.90;99.90
21627;DHT22;10975;47.872;12.972;2023-11-19T09:58:13;8.90;99.90
21627;DHT22;10975;47.872;12.972;2023-11-19T10:00:41;8.90;99.90
21627;DHT22;10975;47.872;12.972;2023-11-19T10:03:08;9.00;99.90
21627;DHT22;10975;47.872;12.972;2023-11-19T10:05:37;9.00;99.90
21627;DHT22;10975;47.872;12.972;2023-11-19T10:08:05;9.00;99.90
21627;DHT22;10975;47.872;12.972;2023-11-19T10:10:32;9.00;99.90
21627;DHT22;10975;47.872;12.972;2023-11-19T10:12:59;9.10;99.90
21627;DHT22;10975;47.872;12.972;2023-11-19T10:15:27;9.20;99.90
21627;DHT22;10975;47.872;12.972;2023-11-19T10:17:57;9.40;99.90
21627;DHT22;10975;47.872;12.972;2023-11-19T10:20:24;9.50;99.90
21627;DHT22;10975;47.872;12.972;2023-11-19T10:22:57;9.60;99.90
21627;DHT22;10975;47.872;12.972;2023-11-19T10:25:25;9.70;99.90
21627;DHT22;10975;47.872;12.972;2023-11-19T10:27:54;9.80;99.90
21627;DHT22;10975;47.872;12.972;2023-11-19T10:30:25;9.80;99.90
21627;DHT22;10975;47.872;12.972;2023-11-19T10:35:29;10.00;99.90
21627;DHT22;10975;47.872;12.972;2023-11-19T10:37:55;10.10;99.90
21627;DHT22;10975;47.872;12.972;2023-11-19T10:40:22;10.10;99.90
21627;DHT22;10975;47.872;12.972;2023-11-19T10:42:49;10.20;99.90
21627;DHT22;10975;47.872;12.972;2023-11-19T10:45:28;10.20;99.90
21627;DHT22;10975;47.872;12.972;2023-11-19T10:47:54;10.10;99.90
21627;DHT22;10975;47.872;12.972;2023-11-19T10:50:22;10.10;99.90
21627;DHT22;10975;47.872;12.972;2023-11-19T10:52:51;10.10;99.90
21627;DHT22;10975;47.872;12.972;2023-11-19T10:55:19;10.00;99.90
21627;DHT22;10975;47.872;12.972;2023-11-19T10:57:52;10.00;99.90
21627;DHT22;10975;47.872;12.972;2023-11-19T11:00:19;10.00;99.90
21627;DHT22;10975;47.872;12.972;2023-11-19T11:02:48;10.10;99.90
21627;DHT22;10975;47.872;12.972;2023-11-19T11:05:17;10.20;99.90
21627;DHT22;10975;47.872;12.972;2023-11-19T11:07:44;10.20;99.90
21627;DHT22;10975;47.872;12.972;2023-11-19T11:10:11;10.20;99.90
21627;DHT22;10975;47.872;12.972;2023-11-19T11:12:38;10.10;99.90
21627;DHT22;10975;47.872;12.972;2023-11-19T11:15:08;10.10;99.90
21627;DHT22;10975;47.872;12.972;2023-11-19T11:17:38;10.10;99.90
21627;DHT22;10975;47.872;12.972;2023-11-19T11:20:07;10.00;99.90
21627;DHT22;10975;47.872;12.972;2023-11-19T11:22:39;10.00;99.90
21627;DHT22;10975;47.872;12.972;2023-11-19T11:25:23;10.00;99.90
21627;DHT22;10975;47.872;12.972;2023-11-19T11:28:05;10.20;99.90
21627;DHT22;10975;47.872;12.972;2023-11-19T11:30:54;10.40;99.90
21627;DHT22;10975;47.872;12.972;2023-11-19T11:38:40;10.30;99.90
21627;DHT22;10975;47.872;12.972;2023-11-19T11:41:18;10.20;99.90
21627;DHT22;10975;47.872;12.972;2023-11-19T11:43:53;10.10;99.90
21627;DHT22;10975;47.872;12.972;2023-11-19T11:49:07;10.10;99.90
21627;DHT22;10975;47.872;12.972;2023-11-19T12:02:09;10.30;99.90
21627;DHT22;10975;47.872;12.972;2023-11-19T12:04:36;10.40;99.90
21627;DHT22;10975;47.872;12.972;2023-11-19T12:07:04;10.40;99.90
21627;DHT22;10975;47.872;12.972;2023-11-19T12:09:31;10.40;99.90
21627;DHT22;10975;47.872;12.972;2023-11-19T12:12:07;10.40;99.90
21627;DHT22;10975;47.872;12.972;2023-11-19T12:17:36;10.50;99.90
21627;DHT22;10975;47.872;12.972;2023-11-19T12:20:04;10.70;99.90
21627;DHT22;10975;47.872;12.972;2023-11-19T12:22:33;10.70;99.90
21627;DHT22;10975;47.872;12.972;2023-11-19T12:25:00;10.80;99.90
21627;DHT22;10975;47.872;12.972;2023-11-19T12:27:26;10.60;99.90
21627;DHT22;10975;47.872;12.972;2023-11-19T12:29:54;10.60;99.90
21627;DHT22;10975;47.872;12.972;2023-11-19T12:32:23;10.60;99.90
21627;DHT22;10975;47.872;12.972;2023-11-19T12:34:50;10.80;99.90
21627;DHT22;10975;47.872;12.972;2023-11-19T12:37:16;11.00;99.90
21627;DHT22;10975;47.872;12.972;2023-11-19T12:39:43;11.10;99.90
21627;DHT22;10975;47.872;12.972;2023-11-19T12:42:10;11.20;99.90
21627;DHT22;10975;47.872;12.972;2023-11-19T12:44:39;11.10;99.90
21627;DHT22;10975;47.872;12.972;2023-11-19T12:47:06;11.00;99.90
21627;DHT22;10975;47.872;12.972;2023-11-19T12:49:33;10.90;99.90
21627;DHT22;10975;47.872;12.972;2023-11-19T12:52:00;10.90;99.90
21627;DHT22;10975;47.872;12.972;2023-11-19T12:57:01;11.00;99.90
21627;DHT22;10975;47.872;12.972;2023-11-19T12:59:27;11.00;99.90
21627;DHT22;10975;47.872;12.972;2023-11-19T13:01:55;10.90;99.90
21627;DHT22;10975;47.872;12.972;2023-11-19T13:04:22;10.80;99.90
21627;DHT22;10975;47.872;12.972;2023-11-19T13:06:50;10.80;99.90
21627;DHT22;10975;47.872;12.972;2023-11-19T13:09:21;10.80;99.90
21627;DHT22;10975;47.872;12.972;2023-11-19T13:11:48;10.80;99.90
21627;DHT22;10975;47.872;12.972;2023-11-19T13:14:14;10.80;99.90
21627;DHT22;10975;47.872;12.972;2023-11-19T13:16:41;10.80;99.90
21627;DHT22;10975;47.872;12.972;2023-11-19T13:19:09;10.80;99.90
21627;DHT22;10975;47.872;12.972;2023-11-19T13:21:36;10.80;99.90
21627;DHT22;10975;47.872;12.972;2023-11-19T13:24:04;10.80;99.90
21627;DHT22;10975;47.872;12.972;2023-11-19T13:26:32;10.80;99.90
21627;DHT22;10975;47.872;12.972;2023-11-19T13:28:58;10.80;99.90
21627;DHT22;10975;47.872;12.972;2023-11-19T13:31:26;10.90;99.90
21627;DHT22;10975;47.872;12.972;2023-11-19T13:33:52;11.00;99.90
21627;DHT22;10975;47.872;12.972;2023-11-19T13:36:19;11.00;99.90
21627;DHT22;10975;47.872;12.972;2023-11-19T13:38:46;10.90;99.90
21627;DHT22;10975;47.872;12.972;2023-11-19T13:41:13;11.00;99.90
21627;DHT22;10975;47.872;12.972;2023-11-19T13:43:40;10.90;99.90
21627;DHT22;10975;47.872;12.972;2023-11-19T13:46:07;10.90;99.90
21627;DHT22;10975;47.872;12.972;2023-11-19T13:48:37;10.90;99.90
21627;DHT22;10975;47.872;12.972;2023-11-19T13:51:04;11.00;99.90
21627;DHT22;10975;47.872;12.972;2023-11-19T13:53:31;11.00;99.90
21627;DHT22;10975;47.872;12.972;2023-11-19T13:56:16;11.00;99.90
21627;DHT22;10975;47.872;12.972;2023-11-19T13:58:43;11.00;99.90
21627;DHT22;10975;47.872;12.972;2023-11-19T14:01:10;11.00;99.90
21627;DHT22;10975;47.872;12.972;2023-11-19T14:03:39;11.00;99.90
21627;DHT22;10975;47.872;12.972;2023-11-19T14:06:07;11.00;99.90
21627;DHT22;10975;47.872;12.972;2023-11-19T14:08:35;11.00;99.90
21627;DHT22;10975;47.872;12.972;2023-11-19T14:11:02;11.00;99.90
21627;DHT22;10975;47.872;12.972;2023-11-19T14:13:28;11.00;99.90
21627;DHT22;10975;47.872;12.972;2023-11-19T14:15:55;11.00;99.90
21627;DHT22;10975;47.872;12.972;2023-11-19T14:18:22;10.90;99.90
21627;DHT22;10975;47.872;12.972;2023-11-19T14:20:49;10.80;99.90
21627;DHT22;10975;47.872;12.972;2023-11-19T14:23:16;10.60;99.90
21627;DHT22;10975;47.872;12.972;2023-11-19T14:25:43;10.50;99.90
21627;DHT22;10975;47.872;12.972;2023-11-19T14:28:09;10.40;99.90
21627;DHT22;10975;47.872;12.972;2023-11-19T14:30:36;10.40;99.90
21627;DHT22;10975;47.872;12.972;2023-11-19T14:33:03;10.30;99.90
21627;DHT22;10975;47.872;12.972;2023-11-19T14:35:31;10.20;99.90
21627;DHT22;10975;47.872;12.972;2023-11-19T14:38:00;10.20;99.90
21627;DHT22;10975;47.872;12.972;2023-11-19T14:40:31;10.10;99.90
21627;DHT22;10975;47.872;12.972;2023-11-19T14:43:00;10.10;99.90
21627;DHT22;10975;47.872;12.972;2023-11-19T14:45:27;10.00;99.90
21627;DHT22;10975;47.872;12.972;2023-11-19T14:47:56;9.90;99.90
21627;DHT22;10975;47.872;12.972;2023-11-19T14:50:23;9.90;99.90
21627;DHT22;10975;47.872;12.972;2023-11-19T14:52:50;9.80;99.90
21627;DHT22;10975;47.872;12.972;2023-11-19T14:55:17;9.70;99.90
21627;DHT22;10975;47.872;12.972;2023-11-19T14:57:44;9.70;99.90
21627;DHT22;10975;47.872;12.972;2023-11-19T15:00:23;9.60;99.90
21627;DHT22;10975;47.872;12.972;2023-11-19T15:02:52;9.60;99.90
21627;DHT22;10975;47.872;12.972;2023-11-19T15:05:18;9.60;99.90
21627;DHT22;10975;47.872;12.972;2023-11-19T15:07:46;9.50;99.90
21627;DHT22;10975;47.872;12.972;2023-11-19T15:10:15;9.40;99.90
21627;DHT22;10975;47.872;12.972;2023-11-19T15:12:41;9.30;99.90
21627;DHT22;10975;47.872;12.972;2023-11-19T15:15:08;9.30;99.90
21627;DHT22;10975;47.872;12.972;2023-11-19T15:18:02;9.20;99.90
21627;DHT22;10975;47.872;12.972;2023-11-19T15:20:28;9.10;99.90
21627;DHT22;10975;47.872;12.972;2023-11-19T15:22:57;9.00;99.90
21627;DHT22;10975;47.872;12.972;2023-11-19T15:25:24;8.90;99.90
21627;DHT22;10975;47.872;12.972;2023-11-19T15:27:50;8.80;99.90
21627;DHT22;10975;47.872;12.972;2023-11-19T15:30:17;8.80;99.90
21627;DHT22;10975;47.872;12.972;2023-11-19T15:32:44;8.60;99.90
21627;DHT22;10975;47.872;12.972;2023-11-19T15:35:11;8.60;99.90
21627;DHT22;10975;47.872;12.972;2023-11-19T15:37:40;8.50;99.90
21627;DHT22;10975;47.872;12.972;2023-11-19T15:40:10;8.50;99.90
21627;DHT22;10975;47.872;12.972;2023-11-19T15:42:39;8.50;99.90
21627;DHT22;10975;47.872;12.972;2023-11-19T15:45:13;8.40;99.90
21627;DHT22;10975;47.872;12.972;2023-11-19T15:47:40;8.30;99.90
21627;DHT22;10975;47.872;12.972;2023-11-19T15:50:07;8.30;99.90
21627;DHT22;10975;47.872;12.972;2023-11-19T15:52:36;8.20;99.90
21627;DHT22;10975;47.872;12.972;2023-11-19T15:55:04;8.10;99.90
21627;DHT22;10975;47.872;12.972;2023-11-19T15:57:31;8.10;99.90